createdAt,value
2023-05-19T00:02:00.280Z,10.58
2023-05-19T00:04:27.763Z,10.59
2023-05-19T00:06:54.743Z,10.57
2023-05-19T00:09:21.493Z,10.49
2023-05-19T00:11:48.287Z,10.49
2023-05-19T00:14:14.991Z,10.43
2023-05-19T00:16:42.372Z,10.42
2023-05-19T00:19:10.184Z,10.44
2023-05-19T00:21:40.418Z,10.45
2023-05-19T00:24:07.241Z,10.39
2023-05-19T00:26:34.005Z,10.36
2023-05-19T00:29:00.932Z,10.30
2023-05-19T00:31:27.514Z,10.31
2023-05-19T00:33:54.153Z,10.32
2023-05-19T00:36:20.764Z,10.25
2023-05-19T00:38:47.276Z,10.20
2023-05-19T00:41:13.885Z,10.28
2023-05-19T00:43:40.377Z,10.33
2023-05-19T00:46:07.560Z,10.10
2023-05-19T00:48:34.187Z,10.01
2023-05-19T00:51:05.203Z,10.14
2023-05-19T00:53:33.505Z,10.09
2023-05-19T00:56:00.818Z,10.03
2023-05-19T00:58:30.247Z,10.02
2023-05-19T01:01:03.864Z,10.01
2023-05-19T01:03:36.203Z,9.96
2023-05-19T01:06:07.369Z,9.92
2023-05-19T01:08:36.220Z,9.99
2023-05-19T01:11:03.216Z,9.92
2023-05-19T01:13:30.385Z,9.82
2023-05-19T01:16:02.536Z,9.75
2023-05-19T01:18:40.872Z,9.78
2023-05-19T01:21:46.582Z,9.72
2023-05-19T01:24:32.364Z,9.68
2023-05-19T01:27:24.180Z,9.58
2023-05-19T01:30:23.325Z,9.56
2023-05-19T01:32:53.432Z,9.58
2023-05-19T01:35:23.995Z,9.54
2023-05-19T01:37:54.413Z,9.55
2023-05-19T01:40:22.835Z,9.50
2023-05-19T01:42:52.467Z,9.50
2023-05-19T01:45:19.561Z,9.48
2023-05-19T01:47:49.810Z,9.42
2023-05-19T01:50:16.423Z,9.42
2023-05-19T01:52:43.150Z,9.48
2023-05-19T01:55:10.237Z,9.37
2023-05-19T01:58:11.511Z,9.24
2023-05-19T02:01:00.108Z,9.20
2023-05-19T02:03:44.614Z,9.29
2023-05-19T02:06:35.602Z,9.34
2023-05-19T02:09:24.302Z,9.36
2023-05-19T02:12:11.862Z,9.35
2023-05-19T02:15:06.085Z,9.27
2023-05-19T02:17:36.365Z,9.11
2023-05-19T02:20:05.078Z,9.08
2023-05-19T02:22:31.822Z,9.09
2023-05-19T02:24:58.477Z,9.06
2023-05-19T02:27:25.038Z,8.98
2023-05-19T02:29:52.365Z,9.05
2023-05-19T02:32:19.006Z,8.92
2023-05-19T02:34:45.711Z,8.85
2023-05-19T02:37:14.582Z,8.82
2023-05-19T02:39:42.082Z,8.92
2023-05-19T02:42:08.609Z,8.95
2023-05-19T02:44:35.253Z,8.93
2023-05-19T02:47:01.790Z,8.78
2023-05-19T02:49:30.974Z,8.70
2023-05-19T02:51:57.580Z,8.80
2023-05-19T02:54:24.142Z,8.86
2023-05-19T02:56:50.668Z,8.91
2023-05-19T02:59:17.183Z,8.86
2023-05-19T03:01:43.713Z,8.87
2023-05-19T03:04:10.465Z,8.89
2023-05-19T03:06:37.683Z,8.88
2023-05-19T03:09:04.191Z,8.80
2023-05-19T03:11:30.975Z,8.71
2023-05-19T03:13:58.593Z,8.77
2023-05-19T03:16:25.147Z,8.69
2023-05-19T03:18:52.286Z,8.65
2023-05-19T03:21:18.803Z,8.59
2023-05-19T03:23:45.486Z,8.62
2023-05-19T03:26:11.965Z,8.61
2023-05-19T03:28:38.528Z,8.70
2023-05-19T03:31:05.092Z,8.62
2023-05-19T03:33:31.735Z,8.64
2023-05-19T03:35:59.032Z,8.72
2023-05-19T03:38:25.694Z,8.66
2023-05-19T03:40:53.528Z,8.69
2023-05-19T03:43:19.973Z,8.71
2023-05-19T03:45:46.596Z,8.64
2023-05-19T03:48:13.703Z,8.62
2023-05-19T03:50:40.239Z,8.70
2023-05-19T03:53:06.812Z,8.71
2023-05-19T03:55:33.765Z,8.62
2023-05-19T03:58:00.301Z,8.60
2023-05-19T04:00:26.892Z,8.59
2023-05-19T04:02:53.493Z,8.57
2023-05-19T04:05:20.181Z,8.57
2023-05-19T04:07:46.871Z,8.69
2023-05-19T04:10:13.649Z,8.72
2023-05-19T04:12:40.206Z,8.73
2023-05-19T04:15:07.326Z,8.74
2023-05-19T04:17:34.189Z,8.79
2023-05-19T04:20:01.106Z,8.78
2023-05-19T04:22:27.870Z,8.84
2023-05-19T04:24:55.010Z,8.92
2023-05-19T04:27:21.941Z,8.96
2023-05-19T04:29:49.605Z,8.90
2023-05-19T04:32:18.122Z,8.92
2023-05-19T04:34:47.604Z,9.00
2023-05-19T04:37:16.213Z,9.03
2023-05-19T04:39:45.184Z,9.06
2023-05-19T04:42:12.028Z,9.10
2023-05-19T04:44:42.374Z,9.11
2023-05-19T04:47:10.372Z,9.09
2023-05-19T04:49:40.041Z,9.04
2023-05-19T04:52:10.718Z,9.08
2023-05-19T04:54:38.301Z,9.16
2023-05-19T04:57:05.657Z,9.24
2023-05-19T04:59:32.436Z,9.26
2023-05-19T05:01:58.972Z,9.33
2023-05-19T05:04:26.024Z,9.38
2023-05-19T05:06:52.512Z,9.39
2023-05-19T05:09:19.977Z,9.42
2023-05-19T05:11:46.990Z,9.42
2023-05-19T05:14:13.923Z,9.53
2023-05-19T05:16:40.865Z,9.55
2023-05-19T05:19:07.879Z,9.56
2023-05-19T05:21:34.724Z,9.46
2023-05-19T05:24:01.505Z,9.47
2023-05-19T05:26:33.248Z,9.54
2023-05-19T05:28:59.788Z,9.59
2023-05-19T05:31:26.559Z,9.68
2023-05-19T05:33:53.268Z,9.74
2023-05-19T05:36:19.858Z,9.78
2023-05-19T05:38:46.369Z,9.81
2023-05-19T05:41:12.949Z,9.96
2023-05-19T05:43:39.537Z,10.01
2023-05-19T05:46:06.112Z,10.05
2023-05-19T05:48:33.231Z,10.19
2023-05-19T05:51:00.269Z,10.27
2023-05-19T05:53:30.990Z,10.19
2023-05-19T05:55:58.039Z,10.26
2023-05-19T05:58:24.605Z,10.41
2023-05-19T06:00:53.443Z,10.56
2023-05-19T06:03:24.186Z,10.66
2023-05-19T06:05:51.075Z,10.72
2023-05-19T06:08:17.959Z,10.64
2023-05-19T06:10:47.092Z,10.55
2023-05-19T06:13:14.012Z,10.68
2023-05-19T06:15:41.188Z,10.85
2023-05-19T06:18:07.846Z,11.00
2023-05-19T06:20:34.631Z,11.14
2023-05-19T06:23:01.347Z,11.22
2023-05-19T06:25:27.848Z,11.24
2023-05-19T06:27:54.583Z,11.42
2023-05-19T06:30:22.170Z,11.62
2023-05-19T06:32:48.925Z,11.72
2023-05-19T06:35:15.536Z,11.82
2023-05-19T06:37:42.240Z,11.89
2023-05-19T06:40:09.389Z,11.94
2023-05-19T06:42:35.901Z,12.03
2023-05-19T06:45:02.430Z,12.12
2023-05-19T06:47:29.008Z,12.24
2023-05-19T06:49:55.931Z,12.23
2023-05-19T06:52:23.022Z,12.42
2023-05-19T06:54:50.149Z,12.48
2023-05-19T06:57:16.764Z,12.56
2023-05-19T06:59:43.636Z,12.67
2023-05-19T07:02:10.244Z,12.86
2023-05-19T07:04:36.878Z,12.99
2023-05-19T07:07:03.508Z,13.03
2023-05-19T07:09:29.994Z,13.14
2023-05-19T07:11:56.575Z,13.27
2023-05-19T07:14:23.384Z,13.40
2023-05-19T07:16:50.004Z,13.61
2023-05-19T07:19:16.973Z,13.63
2023-05-19T07:21:43.537Z,13.63
2023-05-19T07:24:10.116Z,13.66
2023-05-19T07:26:36.653Z,13.79
2023-05-19T07:29:03.304Z,13.83
2023-05-19T07:31:29.885Z,13.81
2023-05-19T07:33:57.266Z,13.98
2023-05-19T07:36:23.831Z,14.23
2023-05-19T07:38:50.608Z,14.28
2023-05-19T07:41:17.164Z,14.36
2023-05-19T07:43:43.760Z,14.51
2023-05-19T07:46:10.294Z,14.62
2023-05-19T07:48:37.172Z,14.67
2023-05-19T07:51:03.986Z,14.69
2023-05-19T07:53:30.601Z,14.74
2023-05-19T07:55:58.533Z,14.84
2023-05-19T07:58:25.393Z,14.92
2023-05-19T08:00:53.262Z,15.22
2023-05-19T08:03:20.804Z,15.45
2023-05-19T08:05:47.687Z,15.62
2023-05-19T08:08:16.957Z,15.56
2023-05-19T08:10:43.660Z,15.59
2023-05-19T08:13:10.442Z,15.70
2023-05-19T08:15:37.054Z,15.77
2023-05-19T08:18:05.364Z,15.84
2023-05-19T08:20:32.842Z,15.93
2023-05-19T08:22:59.900Z,16.00
2023-05-19T08:25:26.526Z,16.02
2023-05-19T08:27:53.054Z,16.09
2023-05-19T08:30:19.733Z,16.29
2023-05-19T08:32:46.472Z,16.56
2023-05-19T08:35:12.983Z,16.61
2023-05-19T08:37:39.555Z,16.59
2023-05-19T08:40:07.171Z,16.54
2023-05-19T08:42:33.906Z,16.61
2023-05-19T08:45:02.040Z,16.60
2023-05-19T08:47:28.851Z,16.58
2023-05-19T08:50:05.205Z,16.69
2023-05-19T08:52:47.870Z,16.67
2023-05-19T08:55:21.724Z,16.68
2023-05-19T08:57:49.660Z,16.65
2023-05-19T09:00:17.229Z,16.92
2023-05-19T09:02:55.079Z,17.12
2023-05-19T09:05:28.346Z,17.23
2023-05-19T09:07:55.116Z,17.34
2023-05-19T09:10:21.845Z,17.49
2023-05-19T09:12:49.636Z,17.49
2023-05-19T09:15:19.112Z,17.40
2023-05-19T09:17:48.088Z,17.58
2023-05-19T09:20:16.775Z,17.63
2023-05-19T09:22:50.695Z,17.77
2023-05-19T09:25:22.919Z,18.05
2023-05-19T09:27:50.575Z,17.91
2023-05-19T09:30:17.963Z,17.78
2023-05-19T09:32:45.489Z,17.45
2023-05-19T09:35:16.993Z,17.31
2023-05-19T09:37:44.071Z,17.46
2023-05-19T09:40:11.916Z,17.59
2023-05-19T09:42:40.574Z,17.63
2023-05-19T09:45:09.360Z,17.67
2023-05-19T09:47:38.173Z,17.81
2023-05-19T09:50:09.257Z,17.94
2023-05-19T09:52:37.245Z,18.16
2023-05-19T09:55:05.219Z,18.22
2023-05-19T09:57:38.610Z,18.12
2023-05-19T10:00:15.836Z,18.11
2023-05-19T10:02:46.997Z,18.20
2023-05-19T10:05:17.820Z,18.39
2023-05-19T10:07:45.786Z,18.55
2023-05-19T10:10:13.971Z,18.53
2023-05-19T10:12:41.542Z,18.54
2023-05-19T10:15:12.730Z,18.78
2023-05-19T10:17:40.718Z,19.05
2023-05-19T10:20:17.505Z,18.92
2023-05-19T10:22:46.257Z,18.83
2023-05-19T10:25:18.744Z,18.97
2023-05-19T10:27:53.252Z,19.02
2023-05-19T10:30:30.176Z,19.01
2023-05-19T10:32:59.365Z,18.99
2023-05-19T10:35:56.872Z,19.16
2023-05-19T10:38:42.928Z,19.13
2023-05-19T10:41:35.082Z,18.98
2023-05-19T10:44:09.975Z,19.31
2023-05-19T10:46:36.667Z,19.37
2023-05-19T10:49:03.303Z,19.53
2023-05-19T10:51:34.004Z,19.29
2023-05-19T10:54:10.972Z,19.19
2023-05-19T10:56:42.403Z,19.14
2023-05-19T10:59:32.982Z,19.26
2023-05-19T11:02:04.834Z,19.21
2023-05-19T11:04:48.861Z,19.04
2023-05-19T11:07:19.539Z,18.93
2023-05-19T11:09:51.566Z,18.72
2023-05-19T11:12:24.784Z,18.86
2023-05-19T11:14:55.507Z,19.10
2023-05-19T11:17:25.389Z,19.10
2023-05-19T11:19:56.516Z,19.37
2023-05-19T11:22:29.276Z,19.54
2023-05-19T11:24:56.469Z,19.49
2023-05-19T11:27:35.544Z,19.48
2023-05-19T11:30:14.869Z,19.58
2023-05-19T11:32:44.569Z,19.75
2023-05-19T11:35:11.319Z,19.90
2023-05-19T11:37:37.935Z,19.89
2023-05-19T11:40:09.392Z,19.80
2023-05-19T11:42:37.094Z,19.93
2023-05-19T11:45:06.964Z,20.00
2023-05-19T11:47:42.086Z,19.94
2023-05-19T11:50:13.988Z,19.86
2023-05-19T11:52:44.976Z,20.11
2023-05-19T11:55:19.065Z,20.57
2023-05-19T11:58:04.541Z,20.79
2023-05-19T12:00:39.236Z,21.05
2023-05-19T12:03:06.868Z,20.71
2023-05-19T12:05:39.910Z,21.03
2023-05-19T12:08:08.867Z,20.98
2023-05-19T12:10:35.905Z,20.91
2023-05-19T12:13:03.652Z,21.08
2023-05-19T12:15:32.553Z,21.08
2023-05-19T12:18:00.969Z,21.05
2023-05-19T12:20:29.268Z,21.28
2023-05-19T12:22:56.355Z,21.47
2023-05-19T12:25:23.662Z,21.90
2023-05-19T12:27:52.735Z,21.89
2023-05-19T12:30:26.131Z,21.79
2023-05-19T12:32:53.962Z,22.03
2023-05-19T12:35:20.619Z,22.00
2023-05-19T12:37:49.133Z,22.11
2023-05-19T12:40:16.888Z,22.10
2023-05-19T12:42:48.170Z,22.02
2023-05-19T12:45:15.273Z,21.99
2023-05-19T12:47:41.885Z,22.47
2023-05-19T12:50:10.341Z,22.52
2023-05-19T12:53:03.110Z,22.40
2023-05-19T12:55:30.029Z,22.40
2023-05-19T12:57:58.164Z,22.38
2023-05-19T13:00:28.114Z,22.10
2023-05-19T13:03:08.650Z,22.04
2023-05-19T13:05:40.560Z,21.76
2023-05-19T13:08:09.386Z,21.56
2023-05-19T13:10:38.408Z,21.43
2023-05-19T13:13:05.873Z,21.68
2023-05-19T13:15:37.645Z,21.83
2023-05-19T13:18:06.758Z,21.76
2023-05-19T13:20:34.394Z,21.78
2023-05-19T13:23:01.451Z,21.62
2023-05-19T13:25:28.490Z,21.57
2023-05-19T13:27:56.689Z,21.87
2023-05-19T13:30:23.800Z,22.10
2023-05-19T13:32:52.475Z,22.08
2023-05-19T13:35:19.738Z,22.11
2023-05-19T13:37:46.413Z,22.06
2023-05-19T13:40:13.513Z,22.01
2023-05-19T13:42:40.812Z,22.11
2023-05-19T13:45:07.952Z,21.95
2023-05-19T13:47:34.499Z,21.72
2023-05-19T13:50:02.318Z,21.64
2023-05-19T13:52:30.484Z,21.84
2023-05-19T13:54:57.354Z,21.68
2023-05-19T13:57:25.459Z,21.67
2023-05-19T14:00:02.044Z,21.41
2023-05-19T14:02:29.969Z,21.47
2023-05-19T14:04:56.832Z,21.47
2023-05-19T14:07:23.628Z,21.43
2023-05-19T14:09:51.205Z,21.32
2023-05-19T14:12:17.902Z,21.33
2023-05-19T14:14:44.696Z,21.22
2023-05-19T14:17:12.262Z,21.37
2023-05-19T14:19:38.927Z,21.47
2023-05-19T14:22:05.969Z,21.38
2023-05-19T14:24:32.582Z,21.43
2023-05-19T14:26:59.111Z,21.39
2023-05-19T14:29:25.642Z,21.37
2023-05-19T14:31:52.281Z,21.22
2023-05-19T14:34:21.136Z,21.19
2023-05-19T14:36:48.743Z,21.05
2023-05-19T14:39:15.562Z,21.14
2023-05-19T14:41:42.308Z,21.21
2023-05-19T14:44:08.847Z,21.07
2023-05-19T14:46:35.545Z,21.04
2023-05-19T14:49:03.284Z,20.90
2023-05-19T14:51:29.812Z,20.97
2023-05-19T14:53:56.460Z,20.93
2023-05-19T14:56:23.024Z,21.03
2023-05-19T14:58:49.531Z,21.09
2023-05-19T15:01:16.047Z,21.01
2023-05-19T15:03:42.684Z,21.06
2023-05-19T15:06:10.750Z,21.05
2023-05-19T15:08:37.857Z,21.01
2023-05-19T15:11:04.637Z,20.83
2023-05-19T15:13:31.119Z,20.97
2023-05-19T15:16:12.300Z,21.08
2023-05-19T15:18:42.680Z,21.17
2023-05-19T15:21:09.293Z,21.20
2023-05-19T15:23:35.806Z,21.17
2023-05-19T15:26:02.445Z,21.11
2023-05-19T15:28:29.012Z,21.02
2023-05-19T15:30:55.586Z,21.14
2023-05-19T15:33:22.158Z,21.19
2023-05-19T15:35:51.701Z,21.24
2023-05-19T15:38:21.165Z,21.43
2023-05-19T15:40:47.730Z,21.22
2023-05-19T15:43:14.397Z,21.27
2023-05-19T15:45:41.040Z,21.31
2023-05-19T15:48:07.865Z,21.24
2023-05-19T15:50:34.709Z,21.21
2023-05-19T15:53:01.545Z,21.15
2023-05-19T15:55:28.141Z,21.15
2023-05-19T15:57:54.670Z,21.14
2023-05-19T16:00:21.510Z,21.32
2023-05-19T16:02:48.219Z,21.43
2023-05-19T16:05:14.785Z,21.41
2023-05-19T16:07:42.110Z,21.37
2023-05-19T16:10:09.139Z,21.45
2023-05-19T16:12:36.586Z,21.53
2023-05-19T16:15:03.729Z,21.66
2023-05-19T16:17:30.471Z,21.58
2023-05-19T16:19:57.236Z,21.46
2023-05-19T16:22:24.865Z,21.07
2023-05-19T16:24:52.358Z,21.02
2023-05-19T16:27:19.197Z,20.93
2023-05-19T16:29:45.939Z,21.01
2023-05-19T16:32:12.902Z,21.19
2023-05-19T16:34:39.765Z,21.41
2023-05-19T16:37:06.607Z,21.82
2023-05-19T16:39:35.964Z,21.49
2023-05-19T16:42:03.330Z,21.42
2023-05-19T16:44:29.884Z,21.66
2023-05-19T16:46:56.410Z,21.53
2023-05-19T16:49:22.946Z,21.17
2023-05-19T16:51:49.754Z,20.93
2023-05-19T16:54:16.266Z,20.88
2023-05-19T16:56:42.754Z,20.83
2023-05-19T16:59:09.610Z,20.82
2023-05-19T17:01:36.223Z,21.05
2023-05-19T17:04:02.817Z,21.17
2023-05-19T17:06:29.382Z,21.30
2023-05-19T17:08:55.980Z,21.24
2023-05-19T17:11:22.878Z,21.05
2023-05-19T17:13:49.464Z,21.03
2023-05-19T17:16:16.121Z,20.88
2023-05-19T17:18:43.832Z,20.65
2023-05-19T17:21:10.692Z,20.43
2023-05-19T17:23:37.926Z,20.42
2023-05-19T17:26:04.945Z,20.48
2023-05-19T17:28:31.750Z,20.44
2023-05-19T17:30:58.453Z,20.37
2023-05-19T17:33:25.015Z,20.57
2023-05-19T17:35:51.704Z,20.65
2023-05-19T17:38:18.244Z,20.55
2023-05-19T17:40:44.816Z,20.58
2023-05-19T17:43:11.371Z,20.55
2023-05-19T17:45:37.955Z,20.50
2023-05-19T17:48:05.002Z,20.64
2023-05-19T17:50:31.893Z,20.86
2023-05-19T17:52:58.880Z,20.72
2023-05-19T17:55:30.109Z,20.37
2023-05-19T17:57:57.380Z,20.36
2023-05-19T18:00:25.178Z,20.36
2023-05-19T18:02:52.393Z,20.41
2023-05-19T18:05:19.403Z,20.42
2023-05-19T18:07:46.258Z,20.45
2023-05-19T18:10:15.384Z,20.31
2023-05-19T18:12:41.983Z,20.03
2023-05-19T18:15:08.854Z,19.90
2023-05-19T18:17:35.520Z,19.95
2023-05-19T18:20:02.377Z,19.92
2023-05-19T18:22:28.982Z,19.88
2023-05-19T18:24:56.204Z,19.84
2023-05-19T18:27:22.714Z,19.68
2023-05-19T18:29:49.230Z,19.59
2023-05-19T18:32:17.740Z,19.53
2023-05-19T18:34:44.387Z,19.47
2023-05-19T18:37:10.925Z,19.33
2023-05-19T18:39:37.527Z,19.25
2023-05-19T18:42:04.180Z,19.19
2023-05-19T18:44:30.762Z,19.16
2023-05-19T18:46:57.255Z,19.05
2023-05-19T18:49:25.028Z,18.99
2023-05-19T18:51:51.890Z,18.87
2023-05-19T18:54:19.458Z,18.76
2023-05-19T18:56:46.087Z,18.74
2023-05-19T18:59:12.800Z,18.56
2023-05-19T19:01:39.537Z,18.50
2023-05-19T19:04:06.240Z,18.37
2023-05-19T19:06:32.833Z,18.30
2023-05-19T19:08:59.337Z,18.27
2023-05-19T19:11:26.291Z,18.18
2023-05-19T19:13:55.403Z,18.13
2023-05-19T19:16:22.397Z,18.13
2023-05-19T19:18:49.074Z,18.13
2023-05-19T19:21:15.691Z,18.13
2023-05-19T19:23:42.250Z,17.98
2023-05-19T19:26:09.494Z,17.89
2023-05-19T19:28:36.503Z,17.77
2023-05-19T19:31:03.264Z,17.75
2023-05-19T19:33:29.824Z,17.75
2023-05-19T19:35:56.512Z,17.66
2023-05-19T19:38:23.173Z,17.52
2023-05-19T19:40:51.845Z,17.46
2023-05-19T19:43:18.624Z,17.44
2023-05-19T19:45:45.171Z,17.43
2023-05-19T19:48:12.182Z,17.42
2023-05-19T19:50:38.786Z,17.21
2023-05-19T19:53:05.399Z,17.00
2023-05-19T19:55:31.973Z,17.05
2023-05-19T19:57:58.560Z,17.00
2023-05-19T20:00:25.135Z,16.89
2023-05-19T20:03:04.288Z,16.84
2023-05-19T20:05:31.813Z,16.76
2023-05-19T20:07:58.491Z,16.76
2023-05-19T20:10:25.097Z,16.69
2023-05-19T20:12:51.938Z,16.67
2023-05-19T20:15:18.741Z,16.67
2023-05-19T20:17:45.935Z,16.61
2023-05-19T20:20:12.921Z,16.63
2023-05-19T20:22:39.499Z,16.51
2023-05-19T20:25:06.923Z,16.47
2023-05-19T20:27:33.584Z,16.28
2023-05-19T20:30:00.200Z,16.22
2023-05-19T20:32:26.823Z,16.18
2023-05-19T20:34:53.978Z,16.16
2023-05-19T20:37:22.090Z,16.07
2023-05-19T20:39:48.682Z,16.08
2023-05-19T20:42:15.195Z,16.11
2023-05-19T20:44:41.929Z,15.99
2023-05-19T20:47:08.876Z,15.93
2023-05-19T20:49:35.485Z,15.95
2023-05-19T20:52:02.220Z,15.81
2023-05-19T20:54:28.799Z,15.62
2023-05-19T20:56:55.487Z,15.62
2023-05-19T20:59:22.109Z,15.66
2023-05-19T21:01:48.686Z,15.62
2023-05-19T21:04:15.349Z,15.52
2023-05-19T21:06:41.890Z,15.43
2023-05-19T21:09:08.767Z,15.32
2023-05-19T21:11:35.503Z,15.30
2023-05-19T21:14:04.174Z,15.25
2023-05-19T21:16:31.586Z,15.28
2023-05-19T21:18:58.332Z,15.15
2023-05-19T21:21:26.217Z,15.12
2023-05-19T21:23:52.802Z,14.97
2023-05-19T21:26:19.264Z,14.99
2023-05-19T21:28:46.173Z,14.97
2023-05-19T21:31:12.804Z,14.88
2023-05-19T21:33:39.401Z,14.79
2023-05-19T21:36:06.116Z,14.73
2023-05-19T21:38:32.640Z,14.78
2023-05-19T21:40:59.209Z,14.80
2023-05-19T21:43:25.976Z,14.79
2023-05-19T21:45:52.577Z,14.79
2023-05-19T21:48:19.252Z,14.86
2023-05-19T21:50:45.777Z,14.86
2023-05-19T21:53:12.271Z,14.77
2023-05-19T21:55:39.392Z,14.68
2023-05-19T21:58:06.178Z,14.69
2023-05-19T22:00:33.034Z,14.53
2023-05-19T22:03:01.041Z,14.51
2023-05-19T22:05:29.777Z,14.49
2023-05-19T22:07:56.500Z,14.51
2023-05-19T22:10:23.169Z,14.50
2023-05-19T22:12:49.898Z,14.48
2023-05-19T22:15:16.444Z,14.56
2023-05-19T22:17:43.182Z,14.45
2023-05-19T22:20:10.220Z,14.34
2023-05-19T22:22:36.739Z,14.33
2023-05-19T22:25:03.881Z,14.34
2023-05-19T22:27:30.687Z,14.34
2023-05-19T22:29:57.328Z,14.36
2023-05-19T22:32:24.081Z,14.37
2023-05-19T22:34:50.879Z,14.28
2023-05-19T22:37:17.469Z,14.26
2023-05-19T22:39:44.160Z,14.23
2023-05-19T22:42:11.089Z,14.11
2023-05-19T22:44:37.619Z,14.05
2023-05-19T22:47:04.310Z,14.00
2023-05-19T22:49:30.915Z,13.94
2023-05-19T22:51:57.435Z,13.98
2023-05-19T22:54:24.023Z,13.95
2023-05-19T22:56:50.590Z,14.00
2023-05-19T22:59:18.029Z,13.99
2023-05-19T23:01:46.505Z,14.01
2023-05-19T23:04:13.953Z,13.96
2023-05-19T23:06:41.598Z,13.94
2023-05-19T23:09:08.138Z,13.94
2023-05-19T23:11:35.864Z,13.85
2023-05-19T23:14:02.535Z,13.77
2023-05-19T23:16:29.102Z,13.73
2023-05-19T23:18:55.685Z,13.70
2023-05-19T23:21:22.278Z,13.64
2023-05-19T23:23:49.693Z,13.66
2023-05-19T23:26:16.237Z,13.64
2023-05-19T23:28:43.189Z,13.63
2023-05-19T23:31:10.424Z,13.62
2023-05-19T23:33:37.041Z,13.59
2023-05-19T23:36:08.138Z,13.68
2023-05-19T23:38:35.534Z,13.67
2023-05-19T23:41:02.109Z,13.63
2023-05-19T23:43:28.804Z,13.53
2023-05-19T23:45:55.517Z,13.47
2023-05-19T23:48:22.012Z,13.44
2023-05-19T23:50:48.586Z,13.32
2023-05-19T23:53:15.150Z,13.20
2023-05-19T23:55:42.273Z,13.24
2023-05-19T23:58:08.884Z,13.23
